sensor_id;sensor_type;location;lat;lon;timestamp;pressure;altitude;pressure_sealevel;temperature;humidity
33795;BME280;51430;52.242;21.118;2023-04-22T00:01:59;100289.54;;;9.84;67.87
33795;BME280;51430;52.242;21.118;2023-04-22T00:04:28;100288.20;;;9.81;67.95
33795;BME280;51430;52.242;21.118;2023-04-22T00:06:56;100292.70;;;9.79;67.88
33795;BME280;51430;52.242;21.118;2023-04-22T00:09:24;100285.62;;;9.76;68.29
33795;BME280;51430;52.242;21.118;2023-04-22T00:11:52;100288.69;;;9.68;68.29
33795;BME280;51430;52.242;21.118;2023-04-22T00:14:20;100284.73;;;9.58;68.76
33795;BME280;51430;52.242;21.118;2023-04-22T00:16:48;100284.38;;;9.53;68.82
33795;BME280;51430;52.242;21.118;2023-04-22T00:19:15;100283.17;;;9.48;68.74
33795;BME280;51430;52.242;21.118;2023-04-22T00:21:43;100276.62;;;9.45;69.00
33795;BME280;51430;52.242;21.118;2023-04-22T00:24:11;100277.38;;;9.44;69.63
33795;BME280;51430;52.242;21.118;2023-04-22T00:26:42;100276.98;;;9.45;69.39
33795;BME280;51430;52.242;21.118;2023-04-22T00:29:10;100275.23;;;9.43;69.22
33795;BME280;51430;52.242;21.118;2023-04-22T00:31:37;100276.61;;;9.38;69.36
33795;BME280;51430;52.242;21.118;2023-04-22T00:34:05;100275.68;;;9.34;69.56
33795;BME280;51430;52.242;21.118;2023-04-22T00:36:33;100276.31;;;9.32;70.24
33795;BME280;51430;52.242;21.118;2023-04-22T00:39:01;100273.55;;;9.30;69.91
33795;BME280;51430;52.242;21.118;2023-04-22T00:41:29;100273.65;;;9.26;70.13
33795;BME280;51430;52.242;21.118;2023-04-22T00:43:59;100270.98;;;9.22;70.42
33795;BME280;51430;52.242;21.118;2023-04-22T00:46:27;100270.08;;;9.22;70.40
33795;BME280;51430;52.242;21.118;2023-04-22T00:48:56;100271.14;;;9.20;70.61
33795;BME280;51430;52.242;21.118;2023-04-22T00:51:24;100273.38;;;9.15;70.99
33795;BME280;51430;52.242;21.118;2023-04-22T00:53:52;100272.02;;;9.10;70.50
33795;BME280;51430;52.242;21.118;2023-04-22T00:56:20;100273.34;;;9.04;70.54
33795;BME280;51430;52.242;21.118;2023-04-22T00:58:48;100275.43;;;8.94;70.66
33795;BME280;51430;52.242;21.118;2023-04-22T01:01:16;100277.48;;;8.87;71.21
33795;BME280;51430;52.242;21.118;2023-04-22T01:03:46;100272.23;;;8.88;71.54
33795;BME280;51430;52.242;21.118;2023-04-22T01:06:18;100270.42;;;8.86;71.64
33795;BME280;51430;52.242;21.118;2023-04-22T01:08:47;100267.83;;;8.86;71.52
33795;BME280;51430;52.242;21.118;2023-04-22T01:11:15;100266.33;;;8.88;71.49
33795;BME280;51430;52.242;21.118;2023-04-22T01:13:43;100264.94;;;8.85;71.69
33795;BME280;51430;52.242;21.118;2023-04-22T01:16:11;100268.45;;;8.77;71.98
33795;BME280;51430;52.242;21.118;2023-04-22T01:18:39;100263.16;;;8.71;72.13
33795;BME280;51430;52.242;21.118;2023-04-22T01:21:08;100265.33;;;8.70;72.33
33795;BME280;51430;52.242;21.118;2023-04-22T01:23:36;100263.93;;;8.70;72.48
33795;BME280;51430;52.242;21.118;2023-04-22T01:26:04;100264.05;;;8.68;72.37
33795;BME280;51430;52.242;21.118;2023-04-22T01:28:32;100267.55;;;8.63;72.46
33795;BME280;51430;52.242;21.118;2023-04-22T01:31:00;100263.84;;;8.56;72.48
33795;BME280;51430;52.242;21.118;2023-04-22T01:33:28;100259.83;;;8.54;72.80
33795;BME280;51430;52.242;21.118;2023-04-22T01:35:57;100263.25;;;8.52;72.95
33795;BME280;51430;52.242;21.118;2023-04-22T01:38:26;100265.11;;;8.48;72.99
33795;BME280;51430;52.242;21.118;2023-04-22T01:40:53;100267.48;;;8.44;72.91
33795;BME280;51430;52.242;21.118;2023-04-22T01:43:22;100269.30;;;8.43;73.08
33795;BME280;51430;52.242;21.118;2023-04-22T01:45:50;100269.13;;;8.43;73.02
33795;BME280;51430;52.242;21.118;2023-04-22T01:48:18;100267.57;;;8.40;73.23
33795;BME280;51430;52.242;21.118;2023-04-22T01:50:45;100269.73;;;8.37;73.25
33795;BME280;51430;52.242;21.118;2023-04-22T01:53:13;100270.78;;;8.34;73.56
33795;BME280;51430;52.242;21.118;2023-04-22T01:55:42;100270.64;;;8.31;73.49
33795;BME280;51430;52.242;21.118;2023-04-22T01:58:09;100266.45;;;8.24;73.69
33795;BME280;51430;52.242;21.118;2023-04-22T02:00:37;100265.67;;;8.19;73.93
33795;BME280;51430;52.242;21.118;2023-04-22T02:03:05;100263.05;;;8.20;74.00
33795;BME280;51430;52.242;21.118;2023-04-22T02:05:34;100264.29;;;8.19;74.09
33795;BME280;51430;52.242;21.118;2023-04-22T02:08:01;100265.33;;;8.17;74.04
33795;BME280;51430;52.242;21.118;2023-04-22T02:10:29;100264.91;;;8.13;74.20
33795;BME280;51430;52.242;21.118;2023-04-22T02:12:57;100261.97;;;8.08;74.22
33795;BME280;51430;52.242;21.118;2023-04-22T02:15:25;100263.02;;;8.02;74.53
33795;BME280;51430;52.242;21.118;2023-04-22T02:17:53;100257.48;;;7.94;74.80
33795;BME280;51430;52.242;21.118;2023-04-22T02:20:21;100256.27;;;7.88;74.62
33795;BME280;51430;52.242;21.118;2023-04-22T02:22:49;100256.38;;;7.87;74.90
33795;BME280;51430;52.242;21.118;2023-04-22T02:25:17;100251.78;;;7.88;75.00
33795;BME280;51430;52.242;21.118;2023-04-22T02:27:45;100249.92;;;7.85;75.37
33795;BME280;51430;52.242;21.118;2023-04-22T02:30:13;100246.75;;;7.83;75.34
33795;BME280;51430;52.242;21.118;2023-04-22T02:32:41;100246.60;;;7.80;75.33
33795;BME280;51430;52.242;21.118;2023-04-22T02:35:09;100245.86;;;7.78;75.58
33795;BME280;51430;52.242;21.118;2023-04-22T02:37:38;100247.38;;;7.74;75.74
33795;BME280;51430;52.242;21.118;2023-04-22T02:40:06;100246.40;;;7.67;75.97
33795;BME280;51430;52.242;21.118;2023-04-22T02:42:35;100245.91;;;7.62;76.23
33795;BME280;51430;52.242;21.118;2023-04-22T02:45:03;100249.66;;;7.60;76.38
33795;BME280;51430;52.242;21.118;2023-04-22T02:47:31;100246.98;;;7.56;76.62
33795;BME280;51430;52.242;21.118;2023-04-22T02:49:59;100246.87;;;7.55;76.89
33795;BME280;51430;52.242;21.118;2023-04-22T02:52:27;100247.95;;;7.55;76.80
33795;BME280;51430;52.242;21.118;2023-04-22T02:54:55;100244.59;;;7.53;76.77
33795;BME280;51430;52.242;21.118;2023-04-22T02:57:25;100248.31;;;7.51;76.97
33795;BME280;51430;52.242;21.118;2023-04-22T02:59:53;100249.14;;;7.47;76.88
33795;BME280;51430;52.242;21.118;2023-04-22T03:02:21;100250.17;;;7.44;77.02
33795;BME280;51430;52.242;21.118;2023-04-22T03:04:49;100248.45;;;7.41;77.13
33795;BME280;51430;52.242;21.118;2023-04-22T03:07:18;100246.02;;;7.41;77.19
33795;BME280;51430;52.242;21.118;2023-04-22T03:09:46;100242.55;;;7.41;77.22
33795;BME280;51430;52.242;21.118;2023-04-22T03:12:14;100248.15;;;7.41;77.18
33795;BME280;51430;52.242;21.118;2023-04-22T03:14:42;100249.98;;;7.37;77.24
33795;BME280;51430;52.242;21.118;2023-04-22T03:17:10;100248.80;;;7.36;77.55
33795;BME280;51430;52.242;21.118;2023-04-22T03:19:38;100248.87;;;7.38;77.49
33795;BME280;51430;52.242;21.118;2023-04-22T03:22:06;100250.16;;;7.36;77.55
33795;BME280;51430;52.242;21.118;2023-04-22T03:24:34;100255.55;;;7.34;77.76
33795;BME280;51430;52.242;21.118;2023-04-22T03:27:02;100255.55;;;7.36;77.88
33795;BME280;51430;52.242;21.118;2023-04-22T03:29:30;100258.16;;;7.36;77.81
33795;BME280;51430;52.242;21.118;2023-04-22T03:31:58;100257.77;;;7.34;77.73
33795;BME280;51430;52.242;21.118;2023-04-22T03:34:26;100260.54;;;7.34;77.54
33795;BME280;51430;52.242;21.118;2023-04-22T03:36:54;100262.23;;;7.32;77.85
33795;BME280;51430;52.242;21.118;2023-04-22T03:39:22;100263.16;;;7.29;77.89
33795;BME280;51430;52.242;21.118;2023-04-22T03:41:50;100260.63;;;7.27;78.22
33795;BME280;51430;52.242;21.118;2023-04-22T03:44:18;100262.77;;;7.30;78.38
33795;BME280;51430;52.242;21.118;2023-04-22T03:46:46;100267.58;;;7.33;78.37
33795;BME280;51430;52.242;21.118;2023-04-22T03:49:14;100268.21;;;7.39;78.14
33795;BME280;51430;52.242;21.118;2023-04-22T03:51:42;100265.14;;;7.41;78.05
33795;BME280;51430;52.242;21.118;2023-04-22T03:54:09;100268.89;;;7.44;78.22
33795;BME280;51430;52.242;21.118;2023-04-22T03:56:37;100270.16;;;7.49;78.01
33795;BME280;51430;52.242;21.118;2023-04-22T03:59:05;100270.37;;;7.51;78.04
33795;BME280;51430;52.242;21.118;2023-04-22T04:01:33;100270.36;;;7.54;78.04
33795;BME280;51430;52.242;21.118;2023-04-22T04:04:10;100273.95;;;7.58;78.32
33795;BME280;51430;52.242;21.118;2023-04-22T04:06:40;100277.37;;;7.66;78.08
33795;BME280;51430;52.242;21.118;2023-04-22T04:09:08;100278.10;;;7.73;78.00
33795;BME280;51430;52.242;21.118;2023-04-22T04:11:40;100278.05;;;7.77;77.97
33795;BME280;51430;52.242;21.118;2023-04-22T04:14:08;100286.48;;;7.83;77.91
33795;BME280;51430;52.242;21.118;2023-04-22T04:16:36;100284.36;;;7.89;77.57
33795;BME280;51430;52.242;21.118;2023-04-22T04:19:04;100283.55;;;7.96;77.50
33795;BME280;51430;52.242;21.118;2023-04-22T04:21:32;100284.48;;;8.03;77.26
33795;BME280;51430;52.242;21.118;2023-04-22T04:24:02;100286.25;;;8.10;77.36
33795;BME280;51430;52.242;21.118;2023-04-22T04:26:29;100284.88;;;8.18;77.51
33795;BME280;51430;52.242;21.118;2023-04-22T04:28:59;100285.63;;;8.25;77.27
33795;BME280;51430;52.242;21.118;2023-04-22T04:31:28;100286.95;;;8.34;77.21
33795;BME280;51430;52.242;21.118;2023-04-22T04:33:56;100293.02;;;8.44;77.03
33795;BME280;51430;52.242;21.118;2023-04-22T04:36:25;100290.79;;;8.54;76.77
33795;BME280;51430;52.242;21.118;2023-04-22T04:38:54;100292.80;;;8.67;76.21
33795;BME280;51430;52.242;21.118;2023-04-22T04:41:25;100295.42;;;8.79;75.92
33795;BME280;51430;52.242;21.118;2023-04-22T04:43:57;100299.05;;;8.92;75.75
33795;BME280;51430;52.242;21.118;2023-04-22T04:46:27;100298.97;;;9.05;75.56
33795;BME280;51430;52.242;21.118;2023-04-22T04:48:57;100300.91;;;9.17;75.26
33795;BME280;51430;52.242;21.118;2023-04-22T04:51:25;100300.77;;;9.28;74.98
33795;BME280;51430;52.242;21.118;2023-04-22T04:53:53;100301.34;;;9.42;74.26
33795;BME280;51430;52.242;21.118;2023-04-22T04:56:21;100300.47;;;9.57;73.80
33795;BME280;51430;52.242;21.118;2023-04-22T04:58:51;100303.08;;;9.71;73.11
33795;BME280;51430;52.242;21.118;2023-04-22T05:01:18;100305.35;;;9.85;71.64
33795;BME280;51430;52.242;21.118;2023-04-22T05:03:46;100305.99;;;10.02;70.68
33795;BME280;51430;52.242;21.118;2023-04-22T05:06:15;100306.45;;;10.15;70.07
33795;BME280;51430;52.242;21.118;2023-04-22T05:08:43;100306.20;;;10.30;68.90
33795;BME280;51430;52.242;21.118;2023-04-22T05:11:12;100303.59;;;10.43;68.16
33795;BME280;51430;52.242;21.118;2023-04-22T05:13:40;100306.60;;;10.56;67.50
33795;BME280;51430;52.242;21.118;2023-04-22T05:16:08;100305.24;;;10.71;67.15
33795;BME280;51430;52.242;21.118;2023-04-22T05:18:36;100302.90;;;10.90;66.84
33795;BME280;51430;52.242;21.118;2023-04-22T05:21:03;100306.59;;;11.42;65.16
33795;BME280;51430;52.242;21.118;2023-04-22T05:23:31;100305.61;;;12.59;61.97
33795;BME280;51430;52.242;21.118;2023-04-22T05:25:59;100308.70;;;13.81;59.10
33795;BME280;51430;52.242;21.118;2023-04-22T05:28:27;100316.05;;;14.93;55.53
33795;BME280;51430;52.242;21.118;2023-04-22T05:30:56;100316.52;;;16.06;51.93
33795;BME280;51430;52.242;21.118;2023-04-22T05:33:24;100318.61;;;16.97;49.51
33795;BME280;51430;52.242;21.118;2023-04-22T05:35:52;100324.15;;;17.85;46.97
33795;BME280;51430;52.242;21.118;2023-04-22T05:38:20;100323.92;;;18.68;44.79
33795;BME280;51430;52.242;21.118;2023-04-22T05:40:48;100323.80;;;19.43;42.96
33795;BME280;51430;52.242;21.118;2023-04-22T05:43:15;100325.02;;;19.96;41.25
33795;BME280;51430;52.242;21.118;2023-04-22T05:45:43;100328.20;;;20.49;40.01
33795;BME280;51430;52.242;21.118;2023-04-22T05:48:11;100333.36;;;21.09;39.30
33795;BME280;51430;52.242;21.118;2023-04-22T05:50:39;100328.50;;;21.59;38.21
33795;BME280;51430;52.242;21.118;2023-04-22T05:53:07;100330.10;;;22.05;37.14
33795;BME280;51430;52.242;21.118;2023-04-22T05:55:35;100331.16;;;22.45;36.20
33795;BME280;51430;52.242;21.118;2023-04-22T05:58:02;100329.32;;;22.60;35.55
33795;BME280;51430;52.242;21.118;2023-04-22T06:00:30;100328.61;;;22.90;35.50
33795;BME280;51430;52.242;21.118;2023-04-22T06:02:58;100329.84;;;23.11;34.87
33795;BME280;51430;52.242;21.118;2023-04-22T06:05:26;100331.77;;;23.02;34.95
33795;BME280;51430;52.242;21.118;2023-04-22T06:07:55;100330.14;;;23.18;34.56
33795;BME280;51430;52.242;21.118;2023-04-22T06:10:22;100332.47;;;23.35;34.68
33795;BME280;51430;52.242;21.118;2023-04-22T06:12:52;100332.98;;;23.43;34.03
33795;BME280;51430;52.242;21.118;2023-04-22T06:15:20;100333.45;;;23.23;33.91
33795;BME280;51430;52.242;21.118;2023-04-22T06:17:48;100337.02;;;23.09;34.03
33795;BME280;51430;52.242;21.118;2023-04-22T06:20:17;100334.90;;;22.97;34.20
33795;BME280;51430;52.242;21.118;2023-04-22T06:22:45;100333.42;;;22.86;34.66
33795;BME280;51430;52.242;21.118;2023-04-22T06:25:13;100332.50;;;22.89;34.84
33795;BME280;51430;52.242;21.118;2023-04-22T06:27:41;100332.52;;;23.10;34.88
33795;BME280;51430;52.242;21.118;2023-04-22T06:30:10;100329.67;;;23.27;34.12
33795;BME280;51430;52.242;21.118;2023-04-22T06:32:38;100331.92;;;22.88;34.80
33795;BME280;51430;52.242;21.118;2023-04-22T06:35:07;100324.84;;;22.91;35.67
33795;BME280;51430;52.242;21.118;2023-04-22T06:37:35;100328.20;;;22.96;35.44
33795;BME280;51430;52.242;21.118;2023-04-22T06:40:03;100331.74;;;23.12;35.17
33795;BME280;51430;52.242;21.118;2023-04-22T06:42:31;100330.77;;;23.08;34.99
33795;BME280;51430;52.242;21.118;2023-04-22T06:45:05;100328.17;;;23.05;35.25
33795;BME280;51430;52.242;21.118;2023-04-22T06:47:33;100327.36;;;23.07;34.49
33795;BME280;51430;52.242;21.118;2023-04-22T06:50:01;100324.69;;;22.51;34.93
33795;BME280;51430;52.242;21.118;2023-04-22T06:52:29;100323.80;;;22.14;36.05
33795;BME280;51430;52.242;21.118;2023-04-22T06:54:56;100328.16;;;22.32;36.08
33795;BME280;51430;52.242;21.118;2023-04-22T06:57:24;100325.77;;;22.61;35.62
33795;BME280;51430;52.242;21.118;2023-04-22T06:59:54;100323.10;;;22.76;35.19
33795;BME280;51430;52.242;21.118;2023-04-22T07:02:22;100324.59;;;22.96;35.54
33795;BME280;51430;52.242;21.118;2023-04-22T07:04:53;100323.84;;;23.27;34.88
33795;BME280;51430;52.242;21.118;2023-04-22T07:07:21;100323.31;;;23.54;34.04
33795;BME280;51430;52.242;21.118;2023-04-22T07:22:05;100325.52;;;24.58;32.21
33795;BME280;51430;52.242;21.118;2023-04-22T07:24:36;100323.38;;;24.42;31.87
33795;BME280;51430;52.242;21.118;2023-04-22T07:27:47;100322.27;;;24.23;32.13
33795;BME280;51430;52.242;21.118;2023-04-22T07:30:16;100318.45;;;24.07;31.97
33795;BME280;51430;52.242;21.118;2023-04-22T07:32:46;100320.07;;;23.80;31.96
33795;BME280;51430;52.242;21.118;2023-04-22T07:35:15;100317.06;;;24.02;32.69
33795;BME280;51430;52.242;21.118;2023-04-22T07:37:42;100317.16;;;24.74;32.44
33795;BME280;51430;52.242;21.118;2023-04-22T07:41:42;100319.38;;;25.36;31.17
33795;BME280;51430;52.242;21.118;2023-04-22T07:44:13;100317.33;;;25.53;30.23
33795;BME280;51430;52.242;21.118;2023-04-22T07:46:47;100318.19;;;25.94;29.52
33795;BME280;51430;52.242;21.118;2023-04-22T07:49:18;100316.27;;;25.83;28.79
33795;BME280;51430;52.242;21.118;2023-04-22T07:51:46;100318.62;;;25.99;29.33
33795;BME280;51430;52.242;21.118;2023-04-22T08:07:17;100313.05;;;25.58;29.51
33795;BME280;51430;52.242;21.118;2023-04-22T08:20:55;100317.59;;;26.22;27.52
33795;BME280;51430;52.242;21.118;2023-04-22T08:24:00;100314.85;;;25.79;27.71
33795;BME280;51430;52.242;21.118;2023-04-22T08:27:49;100316.69;;;25.98;28.57
33795;BME280;51430;52.242;21.118;2023-04-22T08:41:26;100318.30;;;28.12;25.99
33795;BME280;51430;52.242;21.118;2023-04-22T08:44:19;100314.43;;;28.27;25.51
33795;BME280;51430;52.242;21.118;2023-04-22T08:58:18;100314.32;;;28.66;24.74
33795;BME280;51430;52.242;21.118;2023-04-22T09:01:12;100313.40;;;29.10;24.76
33795;BME280;51430;52.242;21.118;2023-04-22T09:03:41;100315.05;;;29.32;24.06
33795;BME280;51430;52.242;21.118;2023-04-22T09:06:11;100313.14;;;29.83;24.12
33795;BME280;51430;52.242;21.118;2023-04-22T09:08:46;100314.55;;;30.32;23.76
33795;BME280;51430;52.242;21.118;2023-04-22T09:11:17;100310.66;;;30.57;23.01
33795;BME280;51430;52.242;21.118;2023-04-22T09:13:45;100310.37;;;30.64;22.56
33795;BME280;51430;52.242;21.118;2023-04-22T09:16:16;100310.27;;;30.73;21.95
33795;BME280;51430;52.242;21.118;2023-04-22T09:18:48;100312.89;;;31.20;23.15
33795;BME280;51430;52.242;21.118;2023-04-22T09:21:16;100309.55;;;31.68;23.04
33795;BME280;51430;52.242;21.118;2023-04-22T09:23:49;100310.63;;;31.85;22.71
33795;BME280;51430;52.242;21.118;2023-04-22T09:26:22;100317.20;;;31.51;21.49
33795;BME280;51430;52.242;21.118;2023-04-22T09:28:57;100313.80;;;31.41;21.73
33795;BME280;51430;52.242;21.118;2023-04-22T09:31:27;100314.06;;;31.14;22.06
33795;BME280;51430;52.242;21.118;2023-04-22T09:33:56;100309.80;;;31.51;21.17
33795;BME280;51430;52.242;21.118;2023-04-22T09:36:27;100306.19;;;31.57;21.37
33795;BME280;51430;52.242;21.118;2023-04-22T09:39:05;100304.54;;;31.97;22.03
33795;BME280;51430;52.242;21.118;2023-04-22T09:41:38;100291.47;;;31.76;21.23
33795;BME280;51430;52.242;21.118;2023-04-22T09:44:14;100292.40;;;31.87;21.90
33795;BME280;51430;52.242;21.118;2023-04-22T09:46:48;100294.13;;;31.96;21.55
33795;BME280;51430;52.242;21.118;2023-04-22T09:49:20;100296.06;;;32.11;22.06
33795;BME280;51430;52.242;21.118;2023-04-22T09:51:55;100295.27;;;33.05;21.41
33795;BME280;51430;52.242;21.118;2023-04-22T09:54:25;100295.42;;;33.62;20.53
33795;BME280;51430;52.242;21.118;2023-04-22T09:56:54;100292.96;;;33.89;20.23
33795;BME280;51430;52.242;21.118;2023-04-22T09:59:41;100295.44;;;34.28;20.18
33795;BME280;51430;52.242;21.118;2023-04-22T10:02:13;100293.52;;;34.80;19.95
33795;BME280;51430;52.242;21.118;2023-04-22T10:04:43;100295.52;;;35.12;19.78
33795;BME280;51430;52.242;21.118;2023-04-22T10:08:48;100292.23;;;35.82;18.83
33795;BME280;51430;52.242;21.118;2023-04-22T10:11:34;100290.86;;;35.70;19.11
33795;BME280;51430;52.242;21.118;2023-04-22T10:14:06;100286.48;;;36.31;18.94
33795;BME280;51430;52.242;21.118;2023-04-22T10:16:44;100284.63;;;36.42;18.55
33795;BME280;51430;52.242;21.118;2023-04-22T10:19:29;100280.00;;;36.15;18.57
33795;BME280;51430;52.242;21.118;2023-04-22T10:22:01;100281.38;;;36.21;18.83
33795;BME280;51430;52.242;21.118;2023-04-22T10:24:35;100284.02;;;36.57;18.86
33795;BME280;51430;52.242;21.118;2023-04-22T10:27:09;100282.45;;;36.60;18.45
33795;BME280;51430;52.242;21.118;2023-04-22T10:29:42;100282.35;;;36.61;18.88
33795;BME280;51430;52.242;21.118;2023-04-22T10:34:49;100277.59;;;34.55;18.51
33795;BME280;51430;52.242;21.118;2023-04-22T10:38:06;100274.22;;;34.47;19.55
33795;BME280;51430;52.242;21.118;2023-04-22T10:42:11;100272.83;;;35.56;18.54
33795;BME280;51430;52.242;21.118;2023-04-22T10:44:46;100263.21;;;33.50;19.77
33795;BME280;51430;52.242;21.118;2023-04-22T10:50:17;100250.82;;;32.45;19.97
33795;BME280;51430;52.242;21.118;2023-04-22T10:57:52;100240.91;;;31.68;21.41
33795;BME280;51430;52.242;21.118;2023-04-22T11:01:28;100236.52;;;32.06;20.80
33795;BME280;51430;52.242;21.118;2023-04-22T11:05:25;100241.29;;;32.51;20.73
33795;BME280;51430;52.242;21.118;2023-04-22T11:08:51;100245.44;;;33.87;20.71
33795;BME280;51430;52.242;21.118;2023-04-22T11:22:40;100244.33;;;35.78;17.93
33795;BME280;51430;52.242;21.118;2023-04-22T11:25:43;100237.83;;;36.54;18.44
33795;BME280;51430;52.242;21.118;2023-04-22T11:32:31;100231.56;;;35.79;17.57
33795;BME280;51430;52.242;21.118;2023-04-22T11:35:06;100233.14;;;34.38;18.34
33795;BME280;51430;52.242;21.118;2023-04-22T11:37:50;100227.04;;;32.87;19.09
33795;BME280;51430;52.242;21.118;2023-04-22T11:40:41;100217.39;;;32.23;19.67
33795;BME280;51430;52.242;21.118;2023-04-22T11:43:13;100213.42;;;32.12;20.13
33795;BME280;51430;52.242;21.118;2023-04-22T11:45:41;100216.25;;;33.72;19.64
33795;BME280;51430;52.242;21.118;2023-04-22T11:48:13;100223.55;;;34.54;18.65
33795;BME280;51430;52.242;21.118;2023-04-22T11:50:44;100222.83;;;35.16;18.17
33795;BME280;51430;52.242;21.118;2023-04-22T11:53:20;100225.02;;;35.41;17.89
33795;BME280;51430;52.242;21.118;2023-04-22T11:55:51;100219.52;;;36.15;18.26
33795;BME280;51430;52.242;21.118;2023-04-22T11:58:53;100220.46;;;37.01;17.75
33795;BME280;51430;52.242;21.118;2023-04-22T12:01:24;100222.02;;;35.66;17.14
33795;BME280;51430;52.242;21.118;2023-04-22T12:03:59;100219.34;;;34.42;17.95
33795;BME280;51430;52.242;21.118;2023-04-22T12:06:29;100214.36;;;33.64;18.66
33795;BME280;51430;52.242;21.118;2023-04-22T12:08:59;100214.81;;;34.53;19.21
33795;BME280;51430;52.242;21.118;2023-04-22T12:13:45;100214.08;;;36.40;17.84
33795;BME280;51430;52.242;21.118;2023-04-22T12:16:17;100214.75;;;37.48;17.63
33795;BME280;51430;52.242;21.118;2023-04-22T12:18:55;100219.15;;;38.18;17.30
33795;BME280;51430;52.242;21.118;2023-04-22T12:21:40;100221.09;;;38.75;16.45
33795;BME280;51430;52.242;21.118;2023-04-22T12:24:09;100219.86;;;39.40;16.30
33795;BME280;51430;52.242;21.118;2023-04-22T12:26:39;100217.19;;;38.12;15.26
33795;BME280;51430;52.242;21.118;2023-04-22T12:29:08;100214.64;;;37.32;15.91
33795;BME280;51430;52.242;21.118;2023-04-22T12:31:48;100208.32;;;35.13;16.60
33795;BME280;51430;52.242;21.118;2023-04-22T12:34:16;100200.73;;;33.13;17.77
33795;BME280;51430;52.242;21.118;2023-04-22T12:39:16;100191.63;;;33.22;18.02
33795;BME280;51430;52.242;21.118;2023-04-22T12:42:36;100184.71;;;31.47;19.00
33795;BME280;51430;52.242;21.118;2023-04-22T12:45:09;100181.18;;;29.44;20.30
33795;BME280;51430;52.242;21.118;2023-04-22T12:47:38;100174.08;;;29.24;20.47
33795;BME280;51430;52.242;21.118;2023-04-22T12:50:11;100174.89;;;29.23;20.77
33795;BME280;51430;52.242;21.118;2023-04-22T12:52:41;100173.02;;;29.76;20.12
33795;BME280;51430;52.242;21.118;2023-04-22T12:55:09;100169.27;;;31.16;19.71
33795;BME280;51430;52.242;21.118;2023-04-22T12:57:38;100173.47;;;32.65;18.69
33795;BME280;51430;52.242;21.118;2023-04-22T13:00:10;100172.33;;;32.02;18.20
33795;BME280;51430;52.242;21.118;2023-04-22T13:02:46;100163.30;;;31.16;18.92
33795;BME280;51430;52.242;21.118;2023-04-22T13:05:15;100163.09;;;29.99;19.69
33795;BME280;51430;52.242;21.118;2023-04-22T13:07:44;100159.79;;;30.52;19.98
33795;BME280;51430;52.242;21.118;2023-04-22T13:10:26;100155.91;;;30.89;19.07
33795;BME280;51430;52.242;21.118;2023-04-22T13:12:55;100158.46;;;31.02;18.87
33795;BME280;51430;52.242;21.118;2023-04-22T13:15:43;100150.79;;;31.07;18.60
33795;BME280;51430;52.242;21.118;2023-04-22T13:18:10;100157.05;;;32.15;18.78
33795;BME280;51430;52.242;21.118;2023-04-22T13:20:40;100157.55;;;32.37;18.23
33795;BME280;51430;52.242;21.118;2023-04-22T13:23:09;100157.02;;;32.41;18.03
33795;BME280;51430;52.242;21.118;2023-04-22T13:25:37;100152.08;;;32.37;18.59
33795;BME280;51430;52.242;21.118;2023-04-22T13:28:09;100158.21;;;32.52;18.10
33795;BME280;51430;52.242;21.118;2023-04-22T13:30:38;100150.77;;;31.84;18.52
33795;BME280;51430;52.242;21.118;2023-04-22T13:33:07;100151.73;;;31.14;18.69
33795;BME280;51430;52.242;21.118;2023-04-22T13:35:35;100144.84;;;31.43;19.08
33795;BME280;51430;52.242;21.118;2023-04-22T13:38:04;100143.11;;;31.69;18.64
33795;BME280;51430;52.242;21.118;2023-04-22T13:40:34;100140.77;;;31.54;18.46
33795;BME280;51430;52.242;21.118;2023-04-22T13:43:02;100144.41;;;32.10;18.61
33795;BME280;51430;52.242;21.118;2023-04-22T13:45:31;100137.30;;;31.04;18.99
33795;BME280;51430;52.242;21.118;2023-04-22T13:47:59;100139.91;;;30.79;19.08
33795;BME280;51430;52.242;21.118;2023-04-22T13:50:27;100142.30;;;30.05;19.64
33795;BME280;51430;52.242;21.118;2023-04-22T13:52:55;100138.22;;;30.50;19.78
33795;BME280;51430;52.242;21.118;2023-04-22T13:55:24;100139.10;;;30.91;19.49
33795;BME280;51430;52.242;21.118;2023-04-22T13:57:53;100135.95;;;31.25;19.02
33795;BME280;51430;52.242;21.118;2023-04-22T14:00:23;100133.16;;;31.58;18.68
33795;BME280;51430;52.242;21.118;2023-04-22T14:02:54;100136.60;;;31.48;18.83
33795;BME280;51430;52.242;21.118;2023-04-22T14:05:26;100130.24;;;29.77;20.51
33795;BME280;51430;52.242;21.118;2023-04-22T14:07:54;100126.56;;;30.74;20.06
33795;BME280;51430;52.242;21.118;2023-04-22T14:10:22;100128.18;;;30.25;20.41
33795;BME280;51430;52.242;21.118;2023-04-22T14:12:51;100117.70;;;29.03;21.30
33795;BME280;51430;52.242;21.118;2023-04-22T14:15:18;100120.23;;;29.09;21.44
33795;BME280;51430;52.242;21.118;2023-04-22T14:17:47;100121.06;;;29.88;21.01
33795;BME280;51430;52.242;21.118;2023-04-22T14:20:16;100126.79;;;30.38;20.47
33795;BME280;51430;52.242;21.118;2023-04-22T14:22:44;100125.44;;;30.31;20.36
33795;BME280;51430;52.242;21.118;2023-04-22T14:25:13;100123.04;;;31.42;20.17
33795;BME280;51430;52.242;21.118;2023-04-22T14:27:41;100118.84;;;31.43;19.61
33795;BME280;51430;52.242;21.118;2023-04-22T14:30:10;100120.27;;;30.19;20.34
33795;BME280;51430;52.242;21.118;2023-04-22T14:32:38;100113.34;;;30.37;20.58
33795;BME280;51430;52.242;21.118;2023-04-22T14:35:09;100118.31;;;31.96;19.52
33795;BME280;51430;52.242;21.118;2023-04-22T14:37:39;100117.66;;;32.63;18.79
33795;BME280;51430;52.242;21.118;2023-04-22T14:40:08;100119.72;;;33.07;18.26